US Aviators Van Nuys Flight School Los Angeles Pilot school at Van Nuys Simulator Flight Training Profesional Pilot Instruction Learn to Fly

U.S. Aviators

Learn to fly here! (818) 779-2105

Weather at Van Nuys Airport

Observed:Mon Sep 1, 15:51 PDT
Age:30 min ago
Wind:S at 7 mph
Visibility:10 miles
Clouds:Clear skies
Temperature:93°F (34°C)
Dewpoint:28°F (-2°C)
Humidity:10%
Barometer:1008 hPa (29.78 in Hg)

METAR

KVNY 012251Z 17011KT 10SM CLR 34/M02 A2978 RMK AO2 SLP072 T03391017